Latest Coastal Weather Observations for Legendre Island

IDW60701

Issued at 10:15 pm WST Tuesday 2 September 2014 (issued every 10 minutes, with the page automatically refreshed every 10 minutes)

About coastal observations | Map of coastal stations | Coastal observations for WA | Marine services | Other Formats
Station Details ID: 004095 Name: LEGENDRE ISLAND Lat: -20.36 Lon: 116.84 Height: 29.0 m
Data from the previous 72 hours. | See also: Recent months for locations in Western Australia
Date/Time
WST
Temp

°C
Wind Pressure Rain
since 9am
mm
Weather Cloud Vis
km
Sea
Height
m
Swell
Dir
 
Speed
knots
Gust
knots
hPa Trend Height
m
Period
s
Dir
02/10:00pm 20.9 WSW 7 7 1017.1 - - - - - - - - -
02/09:30pm 20.9 WSW 6 7 1016.9 - - - - - - - - -
02/09:00pm 21.7 W 6 7 1016.8 - - - - - - - - -
02/08:30pm 22.2 W 6 7 1016.7 - - - - - - - - -
02/08:00pm 22.0 W 7 8 1016.2 - - - - - - - - -
02/07:30pm 22.4 W 6 7 1016.0 - - - - - - - - -
02/07:00pm 22.6 W 6 7 1015.7 - - - - - - - - -
02/06:30pm 22.9 W 5 6 1015.4 - - - - - - - - -
02/06:00pm 23.7 W 6 6 1015.3 - - - - - - - - -
02/05:30pm 25.6 W 6 7 1015.2 - - - - - - - - -
02/05:00pm 26.8 W 5 7 1015.0 - - - - - - - - -
02/04:30pm 27.2 NW 5 7 1014.5 - - - - - - - - -
02/04:00pm 27.6 WNW 5 7 1014.4 - - - - - - - - -
02/03:30pm 27.8 WNW 5 6 1014.5 - - - - - - - - -
02/03:00pm 28.7 NW 4 6 1014.7 - - - - - - - - -
02/02:30pm 29.2 NW 3 5 1014.9 - - - - - - - - -
02/02:00pm 27.0 N 4 5 1015.1 - - - - - - - - -
02/01:30pm 27.1 N 4 5 1015.6 - - - - - - - - -
02/01:00pm 27.0 N 4 5 1016.0 - - - - - - - - -
02/12:30pm 26.3 N 4 5 1016.4 - - - - - - - - -
02/12:00pm 26.1 N 4 5 1016.7 - - - - - - - - -
02/11:30am 26.9 N 4 5 1017.0 - - - - - - - - -
02/11:00am 26.5 N 4 5 1017.3 - - - - - - - - -
02/10:30am 25.3 N 4 5 1017.6 - - - - - - - - -
02/10:00am 25.0 N 3 4 1017.8 - - - - - - - - -
02/09:30am 25.2 N 2 4 1017.6 - - - - - - - - -
02/09:00am 24.9 ENE 1 2 1017.3 - - - - - - - - -
02/08:30am 23.8 ESE 2 2 1017.0 - - - - - - - - -
02/08:00am 22.4 SSE 2 2 1016.7 - - - - - - - - -
02/07:30am 21.9 SE 2 3 1016.2 - - - - - - - - -
02/07:00am 20.2 SSE 3 4 1015.8 - - - - - - - - -
02/06:30am 19.4 S 4 5 1015.5 - - - - - - - - -
02/06:00am 19.3 S 5 5 1015.1 - - - - - - - - -
02/05:30am 19.2 S 6 6 1014.8 - - - - - - - - -
02/05:00am 19.3 S 5 5 1014.7 - - - - - - - - -
02/04:30am 19.5 S 5 5 1014.6 - - - - - - - - -
02/04:00am 19.5 SSW 5 5 1014.4 - - - - - - - - -
02/03:30am 19.5 SSW 7 7 1014.5 - - - - - - - - -
02/03:00am 19.6 SSW 8 9 1014.7 - - - - - - - - -
02/02:30am 19.8 SSW 6 7 1014.9 - - - - - - - - -
02/02:00am 20.2 SW 7 8 1015.0 - - - - - - - - -
02/01:30am 20.9 SW 9 11 1015.2 - - - - - - - - -
02/01:00am 20.7 SW 8 9 1015.4 - - - - - - - - -
02/12:30am 20.4 WSW 7 7 1015.4 - - - - - - - - -
02/12:00am 20.9 SW 5 6 1015.5 - - - - - - - - -
 
Date/Time
WST
Temp

°C
Wind Pressure Rain
since 9am
mm
Weather Cloud Vis
km
Sea
Height
m
Swell
Dir
 
Speed
knots
Gust
knots
hPa Trend Height
m
Period
s
Dir
01/11:30pm 21.0 W 5 6 1015.5 - - - - - - - - -
01/11:00pm 21.4 W 6 7 1015.5 - - - - - - - - -
01/10:30pm 21.8 W 4 5 1015.8 - - - - - - - - -
01/10:00pm 22.0 WNW 4 5 1015.7 - - - - - - - - -
01/09:30pm 21.9 NW 5 6 1015.7 - - - - - - - - -
01/09:00pm 22.3 NNW 4 5 1015.8 - - - - - - - - -
01/08:30pm 22.7 NNW 4 4 1015.5 - - - - - - - - -
01/08:00pm 22.6 NNW 4 5 1015.3 - - - - - - - - -
01/07:30pm 22.7 NNW 4 5 1014.9 - - - - - - - - -
01/07:00pm 22.8 NNW 4 5 1014.6 - - - - - - - - -
01/06:30pm 23.4 NNW 5 6 1014.4 - - - - - - - - -
01/06:00pm 23.6 NNW 4 5 1014.2 - - - - - - - - -
01/05:30pm 24.4 N 5 6 1014.1 - - - - - - - - -
01/05:00pm 25.0 NNW 5 6 1014.0 - - - - - - - - -
01/04:30pm 25.3 NNW 5 6 1013.7 - - - - - - - - -
01/04:00pm 25.9 N 6 7 1013.5 - - - - - - - - -
01/03:30pm 26.1 N 5 5 1013.4 - - - - - - - - -
01/03:00pm 26.3 N 6 7 1013.6 - - - - - - - - -
01/02:30pm 26.4 N 7 8 1013.7 - - - - - - - - -
01/02:00pm 27.2 N 6 7 1014.2 - - - - - - - - -
01/01:30pm 26.8 N 5 6 1014.7 - - - - - - - - -
01/01:00pm 26.6 NNE 5 5 1015.1 - - - - - - - - -
01/12:30pm 26.6 NNE 4 5 1015.4 - - - - - - - - -
01/12:00pm 26.7 NNE 4 5 1015.6 - - - - - - - - -
01/11:30am 26.8 NE 4 5 1015.8 - - - - - - - - -
01/11:00am 26.4 NE 5 5 1016.2 - - - - - - - - -
01/10:30am 25.7 NE 4 5 1016.3 - - - - - - - - -
01/10:00am 24.5 ENE 4 4 1016.4 - - - - - - - - -
01/09:30am 23.8 NNE 3 4 1016.3 - - - - - - - - -
01/09:00am 23.9 E 3 5 1016.0 - - - - - - - - -
01/08:30am 21.9 SE 2 4 1015.9 - - - - - - - - -
01/08:00am 21.4 S 7 8 1015.4 - - - - - - - - -
01/07:30am 20.9 SSW 6 6 1015.2 - - - - - - - - -
01/07:00am 19.7 SSW 5 5 1014.9 - - - - - - - - -
01/06:30am 19.1 SSW 6 7 1014.6 - - - - - - - - -
01/06:00am 19.5 SW 7 8 1014.4 - - - - - - - - -
01/05:30am 19.2 SSW 7 8 1014.1 - - - - - - - - -
01/05:00am 19.1 SW 8 9 1013.9 - - - - - - - - -
01/04:30am 19.6 SSW 9 10 1013.8 - - - - - - - - -
01/04:00am 19.6 SSW 8 9 1013.6 - - - - - - - - -
01/03:30am 20.0 SSW 9 10 1013.7 - - - - - - - - -
01/03:00am 20.3 SW 9 10 1013.9 - - - - - - - - -
01/02:30am 20.4 SW 8 9 1014.1 - - - - - - - - -
01/02:00am 20.4 SW 7 9 1014.1 - - - - - - - - -
01/01:30am 20.8 SW 8 9 1014.3 - - - - - - - - -
01/01:00am 20.8 SW 8 9 1014.4 - - - - - - - - -
01/12:30am 20.8 SW 9 10 1014.6 - - - - - - - - -
01/12:00am 20.7 W 9 9 1014.9 - - - - - - - - -
 
Date/Time
WST
Temp

°C
Wind Pressure Rain
since 9am
mm
Weather Cloud Vis
km
Sea
Height
m
Swell
Dir
 
Speed
knots
Gust
knots
hPa Trend Height
m
Period
s
Dir
31/11:30pm 20.7 W 7 9 1015.1 - - - - - - - - -
31/11:00pm 21.0 W 6 7 1015.1 - - - - - - - - -
31/10:30pm 21.2 WSW 5 6 1014.9 - - - - - - - - -
31/10:00pm 20.8 WSW 5 6 1015.1 - - - - - - - - -
31/09:30pm 20.6 WSW 7 7 1015.1 - - - - - - - - -
31/09:00pm 20.9 WSW 8 8 1015.0 - - - - - - - - -
31/08:30pm 20.9 WSW 7 8 1014.8 - - - - - - - - -
31/08:00pm 21.8 W 6 7 1014.5 - - - - - - - - -
31/07:30pm 22.0 WNW 6 8 1014.1 - - - - - - - - -
31/07:00pm 22.4 NW 6 6 1013.9 - - - - - - - - -
31/06:30pm 22.7 NW 5 7 1013.7 - - - - - - - - -
31/06:00pm 23.3 NNW 6 7 1013.6 - - - - - - - - -
31/05:30pm 24.0 NNW 7 8 1013.4 - - - - - - - - -
31/05:00pm 24.6 N 5 6 1013.4 - - - - - - - - -
31/04:30pm 24.9 N 4 5 1013.4 - - - - - - - - -
31/04:00pm 25.2 N 6 7 1013.5 - - - - - - - - -
31/03:30pm 26.0 N 6 7 1013.5 - - - - - - - - -
31/03:00pm 26.7 N 7 8 1013.6 - - - - - - - - -
31/02:30pm 26.4 N 7 8 1013.7 - - - - - - - - -
31/02:00pm 26.6 N 6 7 1013.9 - - - - - - - - -
31/01:30pm 26.9 N 6 7 1014.2 - - - - - - - - -
31/01:00pm 26.4 N 7 8 1014.5 - - - - - - - - -
31/12:30pm 27.3 N 5 6 1014.7 - - - - - - - - -
31/12:00pm 26.5 NE 3 4 1014.9 - - - - - - - - -
31/11:30am 26.0 ENE 4 5 1015.2 - - - - - - - - -
31/11:00am 26.0 ENE 3 4 1015.6 - - - - - - - - -
31/10:30am 25.4 NNE 3 4 1016.0 - - - - - - - - -
31/10:00am 26.0 NE 3 4 1016.1 - - - - - - - - -
31/09:30am 24.7 NNE 3 4 1016.2 - - - - - - - - -
31/09:00am 24.4 SSE 4 6 1016.1 - - - - - - - - -
31/08:30am 21.9 S 8 9 1015.8 - - - - - - - - -
31/08:00am 20.9 S 9 11 1015.5 - - - - - - - - -
31/07:30am 20.1 S 10 11 1015.3 - - - - - - - - -
31/07:00am 19.2 S 8 9 1015.2 - - - - - - - - -
31/06:30am 18.6 SSW 8 8 1015.0 - - - - - - - - -
31/06:00am 18.9 SSW 9 10 1014.7 - - - - - - - - -
31/05:30am 19.1 SSW 9 11 1014.6 - - - - - - - - -
31/05:00am 19.4 SW 9 11 1014.5 - - - - - - - - -
31/04:30am 18.9 SW 9 9 1014.4 - - - - - - - - -
31/04:00am 18.8 SW 8 9 1014.4 - - - - - - - - -
31/03:30am 19.1 SW 8 9 1014.4 - - - - - - - - -
31/03:00am 19.2 SW 8 9 1014.6 - - - - - - - - -
31/02:30am 19.4 SSW 10 11 1014.8 - - - - - - - - -
31/02:00am 19.7 SSW 9 10 1014.9 - - - - - - - - -
31/01:30am 19.7 SSW 9 10 1015.1 - - - - - - - - -
31/01:00am 20.0 SSW 9 10 1015.3 - - - - - - - - -
31/12:30am 19.5 SSW 7 8 1015.6 - - - - - - - - -
31/12:00am 19.8 SW 8 8 1015.7 - - - - - - - - -
 
Date/Time
WST
Temp

°C
Wind Pressure Rain
since 9am
mm
Weather Cloud Vis
km
Sea
Height
m
Swell
Dir
 
Speed
knots
Gust
knots
hPa Trend Height
m
Period
s
Dir
30/11:30pm 19.8 SW 8 8 1015.9 - - - - - - - - -
30/11:00pm 20.1 SW 8 8 1016.2 - - - - - - - - -
30/10:30pm 19.9 SW 8 8 1016.3 - - - - - - - - -

Other Formats:

Comma delimited format used in spreadsheet applications
http://www.bom.gov.au/fwo/IDW60701/IDW60701.94307.axf

JavaScript Object Notation format (JSON) in row-major order
http://www.bom.gov.au/fwo/IDW60701/IDW60701.94307.json